Time;durP1;ratioP1;P1;durP2;ratioP2;P2;SDS_P1;SDS_P2;PMS_P1;PMS_P2;Temp;Humidity;BMP_temperature;BMP_pressure;BME280_temperature;BME280_humidity;BME280_pressure;Samples;Min_cycle;Max_cycle;Signal;HPM_P1;HPM_P2
2023/09/07 00:00:44;;;;;;;;;;;23.00;49.10;;;;;;1514324;77;1266;-53
2023/09/07 00:02:46;;;;;;;;;;;23.00;49.20;;;;;;1514661;77;757;-53
2023/09/07 00:04:49;;;;;;;;;;;23.00;49.20;;;;;;1514519;77;800;-53
2023/09/07 00:06:51;;;;;;;;;;;23.00;49.20;;;;;;1508371;77;746;-52
2023/09/07 00:08:53;;;;;;;;;;;23.10;49.40;;;;;;1515577;78;1563;-52
2023/09/07 00:10:55;;;;;;;;;;;23.00;49.30;;;;;;1510477;77;1153;-52
2023/09/07 00:12:57;;;;;;;;;;;23.10;49.40;;;;;;1514419;77;766;-52
2023/09/07 00:14:59;;;;;;;;;;;23.00;49.20;;;;;;1509517;78;673;-53
2023/09/07 00:17:02;;;;;;;;;;;23.00;49.40;;;;;;1509616;77;1931;-54
2023/09/07 00:19:06;;;;;;;;;;;23.00;49.40;;;;;;1504358;77;770;-52
2023/09/07 00:21:08;;;;;;;;;;;23.00;49.40;;;;;;1514855;77;1159;-54
2023/09/07 00:23:10;;;;;;;;;;;23.00;49.50;;;;;;1514341;77;1449;-54
2023/09/07 00:25:12;;;;;;;;;;;22.90;49.40;;;;;;1505716;77;788;-52
2023/09/07 00:27:14;;;;;;;;;;;23.00;49.40;;;;;;1515288;77;792;-52
2023/09/07 00:29:16;;;;;;;;;;;23.00;49.50;;;;;;1513137;77;744;-52
2023/09/07 00:31:17;;;;;;;;;;;23.00;49.40;;;;;;1513531;77;1187;-52
2023/09/07 00:33:19;;;;;;;;;;;23.00;49.40;;;;;;1505187;77;796;-54
2023/09/07 00:35:21;;;;;;;;;;;23.00;49.50;;;;;;1503668;77;1945;-53
2023/09/07 00:37:23;;;;;;;;;;;23.00;49.40;;;;;;1515121;77;810;-53
2023/09/07 00:39:25;;;;;;;;;;;23.00;49.40;;;;;;1515709;77;745;-54
2023/09/07 00:41:27;;;;;;;;;;;23.00;49.50;;;;;;1514956;77;1230;-52
2023/09/07 00:43:29;;;;;;;;;;;23.00;49.50;;;;;;1514530;77;702;-52
2023/09/07 00:45:31;;;;;;;;;;;23.00;49.50;;;;;;1508295;77;709;-54
2023/09/07 00:47:33;;;;;;;;;;;23.00;49.50;;;;;;1515921;77;770;-54
2023/09/07 00:49:35;;;;;;;;;;;23.00;49.60;;;;;;1514109;77;1263;-53
2023/09/07 00:51:37;;;;;;;;;;;23.00;49.50;;;;;;1506799;77;776;-52
2023/09/07 00:53:39;;;;;;;;;;;23.00;49.60;;;;;;1514272;77;789;-52
2023/09/07 00:55:41;;;;;;;;;;;22.90;49.50;;;;;;1502345;77;1947;-52
2023/09/07 00:57:43;;;;;;;;;;;23.00;49.50;;;;;;1512549;77;636;-54
2023/09/07 00:59:45;;;;;;;;;;;23.00;49.50;;;;;;1513338;77;1166;-53
2023/09/07 01:01:48;;;;;;;;;;;23.00;49.50;;;;;;1515638;77;738;-53
2023/09/07 01:03:50;;;;;;;;;;;23.00;49.50;;;;;;1515421;77;1402;-53
2023/09/07 01:06:12;;;;;;;;;;;22.90;49.50;;;;;;1507608;77;741;-54
2023/09/07 01:08:15;;;;;;;;;;;23.00;49.60;;;;;;1515281;77;739;-52
2023/09/07 01:10:18;;;;;;;;;;;22.90;49.50;;;;;;1502260;77;1231;-52
2023/09/07 01:12:20;;;;;;;;;;;22.90;49.50;;;;;;1514222;77;830;-53
2023/09/07 01:14:22;;;;;;;;;;;22.90;49.60;;;;;;1513035;77;791;-54
2023/09/07 01:16:24;;;;;;;;;;;23.00;49.40;;;;;;1513911;78;1948;-53
2023/09/07 01:18:26;;;;;;;;;;;23.00;49.50;;;;;;1524422;77;1399;-53
2023/09/07 01:20:28;;;;;;;;;;;23.00;49.50;;;;;;1514601;77;1150;-53
2023/09/07 01:22:29;;;;;;;;;;;23.00;49.50;;;;;;1513220;77;746;-53
2023/09/07 01:24:31;;;;;;;;;;;22.90;49.50;;;;;;1512022;77;683;-53
2023/09/07 01:26:34;;;;;;;;;;;22.90;49.40;;;;;;1507130;77;675;-52
2023/09/07 01:28:37;;;;;;;;;;;23.00;49.40;;;;;;1511315;77;827;-52
2023/09/07 01:30:40;;;;;;;;;;;22.90;49.40;;;;;;1509294;78;1171;-52
2023/09/07 01:32:42;;;;;;;;;;;22.90;49.40;;;;;;1514820;77;1302;-53
2023/09/07 01:34:44;;;;;;;;;;;22.90;49.40;;;;;;1510590;77;734;-54
2023/09/07 01:36:46;;;;;;;;;;;22.90;49.40;;;;;;1507180;78;1948;-54
2023/09/07 01:38:48;;;;;;;;;;;22.90;49.30;;;;;;1505343;78;773;-54
2023/09/07 01:40:50;;;;;;;;;;;22.90;49.20;;;;;;1509916;77;1170;-54
2023/09/07 01:42:52;;;;;;;;;;;22.90;49.40;;;;;;1506713;78;760;-53
2023/09/07 01:44:54;;;;;;;;;;;22.90;49.40;;;;;;1513805;78;771;-54
2023/09/07 01:46:55;;;;;;;;;;;22.90;49.20;;;;;;1513975;78;1468;-54
2023/09/07 01:48:57;;;;;;;;;;;22.90;49.10;;;;;;1509397;77;758;-54
2023/09/07 01:50:59;;;;;;;;;;;22.90;49.10;;;;;;1511153;77;1154;-54
2023/09/07 01:53:03;;;;;;;;;;;22.80;49.00;;;;;;1513659;78;701;-53
2023/09/07 01:55:05;;;;;;;;;;;22.90;49.10;;;;;;1505883;78;723;-53
2023/09/07 01:57:06;;;;;;;;;;;22.90;48.90;;;;;;1516748;78;1953;-53
2023/09/07 01:59:08;;;;;;;;;;;22.90;49.00;;;;;;1515381;77;766;-53
2023/09/07 02:01:23;;;;;;;;;;;22.90;48.90;;;;;;1517809;77;1530;-55
2023/09/07 02:03:25;;;;;;;;;;;22.80;48.80;;;;;;1508970;78;522;-54
2023/09/07 02:05:27;;;;;;;;;;;22.80;48.80;;;;;;1501765;77;693;-54
2023/09/07 02:07:29;;;;;;;;;;;22.80;48.80;;;;;;1513189;77;802;-52
2023/09/07 02:09:31;;;;;;;;;;;22.80;48.90;;;;;;1515423;77;1233;-52
2023/09/07 02:11:33;;;;;;;;;;;22.80;48.70;;;;;;1514846;77;637;-53
2023/09/07 02:13:35;;;;;;;;;;;22.80;48.90;;;;;;1511343;77;747;-54
2023/09/07 02:15:40;;;;;;;;;;;22.80;48.60;;;;;;1513719;77;1382;-54
2023/09/07 02:17:44;;;;;;;;;;;22.80;48.50;;;;;;1510279;77;1930;-54
2023/09/07 02:19:45;;;;;;;;;;;22.80;48.50;;;;;;1516469;77;1608;-54
2023/09/07 02:21:47;;;;;;;;;;;22.80;48.40;;;;;;1511882;77;785;-52
2023/09/07 02:23:49;;;;;;;;;;;22.80;48.40;;;;;;1508106;77;778;-53
2023/09/07 02:25:51;;;;;;;;;;;22.80;48.30;;;;;;1509707;77;737;-54
2023/09/07 02:27:52;;;;;;;;;;;22.80;48.40;;;;;;1514434;77;1416;-52
2023/09/07 02:29:54;;;;;;;;;;;22.70;48.20;;;;;;1511082;77;1202;-53
2023/09/07 02:31:57;;;;;;;;;;;22.70;48.30;;;;;;1516972;77;740;-52
2023/09/07 02:33:59;;;;;;;;;;;22.70;48.20;;;;;;1511781;77;774;-53
2023/09/07 02:36:01;;;;;;;;;;;22.80;48.10;;;;;;1512077;78;737;-54
2023/09/07 02:38:03;;;;;;;;;;;22.80;48.20;;;;;;1512286;77;814;-52
2023/09/07 02:40:08;;;;;;;;;;;22.80;48.20;;;;;;1508103;78;1183;-54
2023/09/07 02:42:08;;;;;;;;;;;22.70;48.10;;;;;;1513442;77;1531;-54
2023/09/07 02:44:10;;;;;;;;;;;22.80;48.10;;;;;;1504695;78;775;-53
2023/09/07 02:46:12;;;;;;;;;;;22.70;48.00;;;;;;1513710;78;768;-53
2023/09/07 02:48:14;;;;;;;;;;;22.80;48.00;;;;;;1518158;78;882;-54
2023/09/07 02:50:17;;;;;;;;;;;22.70;48.00;;;;;;1508684;78;1178;-53
2023/09/07 02:52:19;;;;;;;;;;;22.70;48.10;;;;;;1516092;78;774;-53
2023/09/07 02:54:21;;;;;;;;;;;22.80;48.10;;;;;;1517362;78;835;-52
2023/09/07 02:56:23;;;;;;;;;;;22.70;48.00;;;;;;1514363;77;1953;-54
2023/09/07 02:58:25;;;;;;;;;;;22.80;48.10;;;;;;1513244;77;685;-53
2023/09/07 03:00:26;;;;;;;;;;;22.70;48.10;;;;;;1513261;77;1146;-54
2023/09/07 03:02:28;;;;;;;;;;;22.70;48.20;;;;;;1514438;77;755;-53
2023/09/07 03:04:30;;;;;;;;;;;22.80;48.10;;;;;;1517486;77;998;-52
2023/09/07 03:06:32;;;;;;;;;;;22.80;48.00;;;;;;1513979;77;743;-53
2023/09/07 03:08:34;;;;;;;;;;;22.70;47.90;;;;;;1514491;77;776;-52
2023/09/07 03:10:39;;;;;;;;;;;22.80;48.00;;;;;;1513634;77;1506;-53
2023/09/07 03:12:40;;;;;;;;;;;22.70;47.80;;;;;;1517123;77;1580;-52
2023/09/07 03:14:44;;;;;;;;;;;22.70;47.90;;;;;;1507492;77;736;-54
2023/09/07 03:16:48;;;;;;;;;;;22.80;47.80;;;;;;1516046;77;1938;-53
2023/09/07 03:18:49;;;;;;;;;;;22.80;47.80;;;;;;1516775;77;1651;-53
2023/09/07 03:20:53;;;;;;;;;;;22.70;47.90;;;;;;1511901;77;1148;-53
2023/09/07 03:22:56;;;;;;;;;;;22.70;47.80;;;;;;1515637;77;798;-52
2023/09/07 03:24:58;;;;;;;;;;;22.70;47.70;;;;;;1513664;77;1247;-52
2023/09/07 03:26:59;;;;;;;;;;;22.70;47.70;;;;;;1504544;77;743;-54
2023/09/07 03:29:01;;;;;;;;;;;22.60;47.70;;;;;;1501958;77;778;-53
2023/09/07 03:31:04;;;;;;;;;;;22.70;47.70;;;;;;1514506;78;1155;-54
2023/09/07 03:33:06;;;;;;;;;;;22.60;47.70;;;;;;1507617;77;753;-53
2023/09/07 03:35:09;;;;;;;;;;;22.70;47.80;;;;;;1494730;77;754;-53
2023/09/07 03:37:11;;;;;;;;;;;22.70;47.70;;;;;;1515887;77;1951;-52
2023/09/07 03:39:13;;;;;;;;;;;22.70;47.80;;;;;;1513427;77;1448;-52
2023/09/07 03:41:16;;;;;;;;;;;22.70;47.70;;;;;;1515568;77;1186;-52
2023/09/07 03:43:18;;;;;;;;;;;22.70;47.70;;;;;;1508655;77;750;-54
2023/09/07 03:45:20;;;;;;;;;;;22.60;47.60;;;;;;1510227;77;767;-53
2023/09/07 03:47:22;;;;;;;;;;;22.70;47.80;;;;;;1511793;77;777;-53
2023/09/07 03:49:24;;;;;;;;;;;22.70;47.70;;;;;;1514996;77;670;-54
2023/09/07 03:51:25;;;;;;;;;;;22.70;47.70;;;;;;1502943;77;1131;-53
2023/09/07 03:53:27;;;;;;;;;;;22.70;47.70;;;;;;1510982;77;1466;-54
2023/09/07 03:55:29;;;;;;;;;;;22.70;47.70;;;;;;1498956;77;773;-52
2023/09/07 03:57:31;;;;;;;;;;;22.70;47.80;;;;;;1488501;78;1944;-52
2023/09/07 03:59:33;;;;;;;;;;;22.60;47.70;;;;;;1508838;77;1184;-53
2023/09/07 04:01:35;;;;;;;;;;;22.70;47.70;;;;;;1490039;78;690;-53
2023/09/07 04:03:37;;;;;;;;;;;22.70;47.60;;;;;;1501170;78;740;-54
2023/09/07 04:05:39;;;;;;;;;;;22.60;47.50;;;;;;1507212;77;832;-53
2023/09/07 04:07:41;;;;;;;;;;;22.60;47.40;;;;;;1515322;77;1416;-53
2023/09/07 04:09:43;;;;;;;;;;;22.70;47.50;;;;;;1513681;77;1236;-53
2023/09/07 04:11:45;;;;;;;;;;;22.60;47.40;;;;;;1516053;77;794;-52
2023/09/07 04:13:47;;;;;;;;;;;22.60;47.30;;;;;;1519099;77;773;-53
2023/09/07 04:15:48;;;;;;;;;;;22.60;47.50;;;;;;1515934;78;744;-52
2023/09/07 04:17:50;;;;;;;;;;;22.80;48.00;;;;;;1512415;78;1950;-53
2023/09/07 04:19:52;;;;;;;;;;;22.60;47.70;;;;;;1517916;78;1175;-52
2023/09/07 04:21:54;;;;;;;;;;;22.70;47.50;;;;;;1523856;78;1564;-53
2023/09/07 04:23:56;;;;;;;;;;;22.70;47.60;;;;;;1523599;78;741;-52
2023/09/07 04:26:07;;;;;;;;;;;22.70;47.40;;;;;;1519398;78;777;-52
2023/09/07 04:28:09;;;;;;;;;;;22.70;47.30;;;;;;1511848;78;671;-52
2023/09/07 04:30:11;;;;;;;;;;;22.70;47.50;;;;;;1513857;78;1189;-53
2023/09/07 04:32:13;;;;;;;;;;;22.70;47.40;;;;;;1509859;78;780;-54
2023/09/07 04:34:15;;;;;;;;;;;22.70;47.70;;;;;;1523395;78;760;-54
2023/09/07 04:36:17;;;;;;;;;;;22.70;47.60;;;;;;1513728;78;1415;-53
2023/09/07 04:38:19;;;;;;;;;;;22.70;47.70;;;;;;1522623;78;1950;-54
2023/09/07 04:40:21;;;;;;;;;;;22.70;47.70;;;;;;1522566;77;1167;-54
2023/09/07 04:42:22;;;;;;;;;;;22.70;48.10;;;;;;1521560;78;685;-53
2023/09/07 04:44:26;;;;;;;;;;;22.80;48.40;;;;;;1514379;78;780;-54
2023/09/07 04:46:28;;;;;;;;;;;22.80;48.50;;;;;;1512736;77;809;-54
2023/09/07 04:48:30;;;;;;;;;;;22.70;48.40;;;;;;1495078;78;1401;-53
2023/09/07 04:50:32;;;;;;;;;;;22.80;48.40;;;;;;1479896;78;1182;-54
2023/09/07 04:52:34;;;;;;;;;;;22.70;48.10;;;;;;1481561;78;771;-54
2023/09/07 04:54:36;;;;;;;;;;;22.70;48.10;;;;;;1489257;78;826;-54
2023/09/07 04:56:38;;;;;;;;;;;22.70;48.10;;;;;;1515109;77;758;-53
2023/09/07 04:58:40;;;;;;;;;;;22.70;48.10;;;;;;1515797;77;1958;-53
2023/09/07 05:00:42;;;;;;;;;;;22.70;48.90;;;;;;1512595;77;1129;-53
2023/09/07 05:02:44;;;;;;;;;;;22.80;48.10;;;;;;1510554;77;1449;-54
2023/09/07 05:04:45;;;;;;;;;;;22.80;47.90;;;;;;1504100;77;767;-53
2023/09/07 05:06:47;;;;;;;;;;;22.70;47.90;;;;;;1514806;77;762;-53
2023/09/07 05:08:49;;;;;;;;;;;22.70;47.60;;;;;;1514300;77;716;-54
2023/09/07 05:10:53;;;;;;;;;;;22.70;47.60;;;;;;1514581;77;1340;-52
2023/09/07 05:12:55;;;;;;;;;;;22.70;47.20;;;;;;1507127;77;1684;-53
2023/09/07 05:14:56;;;;;;;;;;;22.70;47.10;;;;;;1508860;78;806;-55
2023/09/07 05:16:58;;;;;;;;;;;22.60;47.10;;;;;;1500158;78;1396;-54
2023/09/07 05:19:00;;;;;;;;;;;22.70;47.10;;;;;;1513742;78;1949;-54
2023/09/07 05:21:04;;;;;;;;;;;22.60;47.10;;;;;;1502425;77;1158;-55
2023/09/07 05:23:06;;;;;;;;;;;22.60;47.00;;;;;;1512495;78;1138;-53
2023/09/07 05:25:08;;;;;;;;;;;22.70;47.10;;;;;;1506312;78;776;-54
2023/09/07 05:27:10;;;;;;;;;;;22.80;47.00;;;;;;1501185;78;751;-54
2023/09/07 05:29:12;;;;;;;;;;;22.80;46.90;;;;;;1514743;78;799;-54
2023/09/07 05:31:14;;;;;;;;;;;22.70;47.00;;;;;;1513478;77;1382;-53
2023/09/07 05:33:16;;;;;;;;;;;22.80;47.10;;;;;;1506358;78;782;-53
2023/09/07 05:35:18;;;;;;;;;;;22.70;47.20;;;;;;1501816;78;786;-53
2023/09/07 05:37:20;;;;;;;;;;;22.70;47.30;;;;;;1510954;78;1937;-54
2023/09/07 05:39:22;;;;;;;;;;;22.80;47.30;;;;;;1502210;78;810;-54
2023/09/07 05:41:24;;;;;;;;;;;22.80;47.30;;;;;;1514536;77;1119;-52
2023/09/07 05:43:26;;;;;;;;;;;22.80;47.40;;;;;;1497947;78;742;-52
2023/09/07 05:45:28;;;;;;;;;;;22.80;47.50;;;;;;1506244;78;1330;-53
2023/09/07 05:47:29;;;;;;;;;;;22.80;47.60;;;;;;1515523;78;768;-53
2023/09/07 05:49:31;;;;;;;;;;;22.80;47.60;;;;;;1518397;77;1190;-53
2023/09/07 05:51:33;;;;;;;;;;;22.80;47.60;;;;;;1506077;78;776;-52
2023/09/07 05:53:35;;;;;;;;;;;22.80;47.60;;;;;;1513663;78;750;-54
2023/09/07 05:55:37;;;;;;;;;;;22.90;47.80;;;;;;1512353;78;685;-52
2023/09/07 05:57:39;;;;;;;;;;;22.90;47.80;;;;;;1518474;78;1953;-52
2023/09/07 05:59:41;;;;;;;;;;;22.90;47.80;;;;;;1509027;78;1452;-52
2023/09/07 06:01:42;;;;;;;;;;;22.90;47.80;;;;;;1515537;78;758;-53
2023/09/07 06:03:44;;;;;;;;;;;22.90;47.80;;;;;;1505941;78;772;-52
2023/09/07 06:05:46;;;;;;;;;;;23.00;47.80;;;;;;1511205;78;650;-53
2023/09/07 06:07:48;;;;;;;;;;;23.00;47.70;;;;;;1514437;78;763;-53
2023/09/07 06:09:50;;;;;;;;;;;23.00;47.70;;;;;;1505621;77;1233;-55
2023/09/07 06:11:52;;;;;;;;;;;23.00;47.70;;;;;;1513058;78;795;-55
2023/09/07 06:13:54;;;;;;;;;;;23.10;47.90;;;;;;1511800;77;1363;-52
2023/09/07 06:15:56;;;;;;;;;;;23.00;47.90;;;;;;1508725;78;687;-53
2023/09/07 06:17:58;;;;;;;;;;;23.10;48.10;;;;;;1501911;78;1948;-53
2023/09/07 06:19:59;;;;;;;;;;;23.10;48.10;;;;;;1510612;77;1186;-53
2023/09/07 06:22:01;;;;;;;;;;;23.10;48.10;;;;;;1511658;78;812;-54
2023/09/07 06:24:06;;;;;;;;;;;23.10;48.10;;;;;;1513541;78;762;-54
2023/09/07 06:26:07;;;;;;;;;;;23.20;48.10;;;;;;1510010;78;1586;-52
2023/09/07 06:28:09;;;;;;;;;;;23.20;48.10;;;;;;1511591;78;1457;-52
2023/09/07 06:30:11;;;;;;;;;;;23.10;48.10;;;;;;1503144;78;1196;-53
2023/09/07 06:32:13;;;;;;;;;;;23.10;48.40;;;;;;1512430;78;771;-53
2023/09/07 06:34:14;;;;;;;;;;;23.00;48.50;;;;;;1503834;78;774;-53
2023/09/07 06:36:16;;;;;;;;;;;23.00;48.60;;;;;;1517732;78;768;-53
2023/09/07 06:38:18;;;;;;;;;;;23.00;48.80;;;;;;1513129;78;1956;-54
2023/09/07 06:40:20;;;;;;;;;;;23.00;49.00;;;;;;1510042;78;1183;-53
2023/09/07 06:42:22;;;;;;;;;;;23.00;49.20;;;;;;1517454;78;1407;-54
2023/09/07 06:44:24;;;;;;;;;;;22.90;49.30;;;;;;1504086;78;762;-52
2023/09/07 06:46:26;;;;;;;;;;;23.00;49.40;;;;;;1515699;77;757;-53
2023/09/07 06:48:28;;;;;;;;;;;23.10;49.50;;;;;;1505704;78;747;-51
2023/09/07 06:50:29;;;;;;;;;;;24.30;48.60;;;;;;1515434;78;1178;-53
2023/09/07 06:52:31;;;;;;;;;;;26.70;43.90;;;;;;1517711;78;753;-53
2023/09/07 06:54:33;;;;;;;;;;;29.20;38.80;;;;;;1509942;78;739;-53
2023/09/07 06:56:35;;;;;;;;;;;31.20;34.20;;;;;;1509084;77;1428;-53
2023/09/07 06:58:37;;;;;;;;;;;32.70;30.80;;;;;;1517356;78;1942;-52
2023/09/07 07:00:39;;;;;;;;;;;33.70;28.60;;;;;;1515935;77;1173;-54
2023/09/07 07:02:41;;;;;;;;;;;34.30;27.30;;;;;;1519850;77;757;-52
2023/09/07 07:04:45;;;;;;;;;;;34.30;26.90;;;;;;1506121;78;767;-52
2023/09/07 07:06:46;;;;;;;;;;;32.20;28.90;;;;;;1518671;78;814;-53
2023/09/07 07:08:48;;;;;;;;;;;30.00;32.10;;;;;;1508983;78;828;-54
2023/09/07 07:10:50;;;;;;;;;;;28.50;34.50;;;;;;1507307;77;1415;-52
2023/09/07 07:12:52;;;;;;;;;;;27.50;36.80;;;;;;1511896;78;774;-52
2023/09/07 07:14:55;;;;;;;;;;;26.70;38.30;;;;;;1509023;78;756;-52
2023/09/07 07:16:56;;;;;;;;;;;26.30;40.00;;;;;;1504015;78;786;-53
2023/09/07 07:18:58;;;;;;;;;;;25.90;40.70;;;;;;1510962;78;1941;-52
2023/09/07 07:21:00;;;;;;;;;;;25.60;41.60;;;;;;1509734;78;1232;-52
2023/09/07 07:23:02;;;;;;;;;;;25.40;42.60;;;;;;1510353;78;770;-52
2023/09/07 07:25:10;;;;;;;;;;;25.20;43.30;;;;;;1511748;78;1470;-53
2023/09/07 07:27:08;;;;;;;;;;;25.10;44.00;;;;;;1512718;78;1567;-53
2023/09/07 07:29:09;;;;;;;;;;;25.00;44.50;;;;;;1516078;78;751;-52
2023/09/07 07:31:11;;;;;;;;;;;24.90;45.10;;;;;;1514669;77;1175;-52
2023/09/07 07:33:13;;;;;;;;;;;24.80;45.40;;;;;;1508509;76;765;-54
2023/09/07 07:35:15;;;;;;;;;;;24.70;45.70;;;;;;1516382;76;747;-52
2023/09/07 07:37:17;;;;;;;;;;;24.60;46.00;;;;;;1516405;77;1406;-52
2023/09/07 07:39:19;;;;;;;;;;;24.60;46.40;;;;;;1516249;76;1948;-53
2023/09/07 07:41:21;;;;;;;;;;;24.50;46.70;;;;;;1488946;78;1112;-54
2023/09/07 07:43:23;;;;;;;;;;;24.50;47.00;;;;;;1524181;78;781;-53
2023/09/07 07:45:24;;;;;;;;;;;24.40;47.10;;;;;;1517118;78;793;-53
2023/09/07 07:47:26;;;;;;;;;;;24.50;47.20;;;;;;1522852;78;770;-54
2023/09/07 07:49:28;;;;;;;;;;;24.50;47.40;;;;;;1511577;78;1175;-52
2023/09/07 07:51:30;;;;;;;;;;;24.50;47.60;;;;;;1519584;78;1429;-54
2023/09/07 07:53:32;;;;;;;;;;;24.40;47.50;;;;;;1520436;78;782;-53
2023/09/07 07:55:40;;;;;;;;;;;24.40;47.60;;;;;;1511439;78;812;-54
2023/09/07 07:57:42;;;;;;;;;;;24.40;47.60;;;;;;1524613;78;631;-53
2023/09/07 07:59:44;;;;;;;;;;;24.40;47.80;;;;;;1522667;77;1956;-54
2023/09/07 08:01:46;;;;;;;;;;;24.30;47.90;;;;;;1519445;78;694;-54
2023/09/07 08:03:48;;;;;;;;;;;24.40;47.90;;;;;;1515039;78;754;-54
2023/09/07 08:05:50;;;;;;;;;;;24.40;48.00;;;;;;1514276;78;1418;-54
2023/09/07 08:07:53;;;;;;;;;;;24.40;48.10;;;;;;1507075;78;653;-54
2023/09/07 08:09:55;;;;;;;;;;;24.40;48.20;;;;;;1506072;78;1132;-53
2023/09/07 08:11:57;;;;;;;;;;;24.40;48.50;;;;;;1524323;78;762;-54
2023/09/07 08:13:59;;;;;;;;;;;24.40;48.70;;;;;;1519604;78;810;-54
2023/09/07 08:16:03;;;;;;;;;;;24.30;48.40;;;;;;1515810;77;797;-54
2023/09/07 08:18:05;;;;;;;;;;;24.40;48.50;;;;;;1512525;78;671;-54
2023/09/07 08:20:11;;;;;;;;;;;24.40;48.40;;;;;;1511934;77;1936;-52
2023/09/07 08:22:11;;;;;;;;;;;24.40;49.10;;;;;;1522573;78;1631;-52
2023/09/07 08:24:13;;;;;;;;;;;24.10;49.60;;;;;;1515578;78;639;-53
2023/09/07 08:26:14;;;;;;;;;;;23.90;50.20;;;;;;1515899;77;901;-52
2023/09/07 08:28:18;;;;;;;;;;;23.80;50.50;;;;;;1509796;78;764;-52
2023/09/07 08:30:22;;;;;;;;;;;23.80;50.90;;;;;;1501304;77;1139;-53
2023/09/07 08:32:23;;;;;;;;;;;23.70;51.50;;;;;;1514455;78;1564;-52
2023/09/07 08:34:25;;;;;;;;;;;23.60;51.80;;;;;;1521869;78;1411;-52
2023/09/07 08:36:29;;;;;;;;;;;23.50;51.90;;;;;;1521748;77;734;-53
2023/09/07 08:38:31;;;;;;;;;;;23.50;52.00;;;;;;1506058;77;1964;-52
2023/09/07 08:40:34;;;;;;;;;;;23.50;52.10;;;;;;1513472;78;1187;-53
2023/09/07 08:42:36;;;;;;;;;;;23.60;51.70;;;;;;1518258;78;787;-54
2023/09/07 08:44:38;;;;;;;;;;;23.70;51.30;;;;;;1518976;78;811;-54
2023/09/07 08:46:40;;;;;;;;;;;23.80;50.90;;;;;;1514450;78;671;-53
2023/09/07 08:48:44;;;;;;;;;;;23.80;50.50;;;;;;1523728;78;1461;-52
2023/09/07 08:50:49;;;;;;;;;;;23.80;50.50;;;;;;1508971;76;1419;-53
2023/09/07 08:52:49;;;;;;;;;;;23.90;50.20;;;;;;1510796;78;1677;-54
2023/09/07 08:54:51;;;;;;;;;;;23.90;50.20;;;;;;1505507;78;778;-53
2023/09/07 08:56:53;;;;;;;;;;;24.00;50.10;;;;;;1518000;78;771;-53
2023/09/07 08:58:55;;;;;;;;;;;24.00;50.00;;;;;;1519363;78;1952;-54
2023/09/07 09:00:57;;;;;;;;;;;24.00;49.80;;;;;;1514957;78;1140;-53
2023/09/07 09:02:59;;;;;;;;;;;24.10;49.90;;;;;;1524988;77;1435;-52
2023/09/07 09:05:01;;;;;;;;;;;24.00;49.70;;;;;;1510721;78;758;-52
2023/09/07 09:07:03;;;;;;;;;;;24.10;49.70;;;;;;1520755;78;804;-52
2023/09/07 09:09:06;;;;;;;;;;;24.10;49.70;;;;;;1521486;78;679;-52
2023/09/07 09:11:09;;;;;;;;;;;24.10;49.70;;;;;;1512937;78;1134;-53
2023/09/07 09:13:11;;;;;;;;;;;24.20;49.70;;;;;;1519380;78;765;-54
2023/09/07 09:15:13;;;;;;;;;;;24.20;49.50;;;;;;1520344;78;750;-53
2023/09/07 09:17:15;;;;;;;;;;;24.20;49.60;;;;;;1505981;78;1509;-53
2023/09/07 09:19:17;;;;;;;;;;;24.20;49.50;;;;;;1507527;78;1951;-53
2023/09/07 09:21:20;;;;;;;;;;;24.20;49.60;;;;;;1514849;77;1257;-52
2023/09/07 09:23:22;;;;;;;;;;;24.20;49.90;;;;;;1511103;78;789;-54
2023/09/07 09:25:23;;;;;;;;;;;24.20;50.00;;;;;;1522872;78;673;-53
2023/09/07 09:27:25;;;;;;;;;;;24.20;49.50;;;;;;1521830;78;731;-53
2023/09/07 09:29:27;;;;;;;;;;;24.20;49.60;;;;;;1521051;78;729;-53
2023/09/07 09:31:29;;;;;;;;;;;24.20;49.40;;;;;;1514832;78;1428;-53
2023/09/07 09:33:33;;;;;;;;;;;24.30;49.70;;;;;;1526358;77;680;-52
2023/09/07 09:35:35;;;;;;;;;;;24.20;49.80;;;;;;1519838;78;822;-53
2023/09/07 09:37:46;;;;;;;;;;;24.20;50.00;;;;;;1514205;78;771;-54
2023/09/07 09:39:51;;;;;;;;;;;24.20;50.30;;;;;;1524406;78;1934;-53
2023/09/07 09:41:53;;;;;;;;;;;24.20;49.70;;;;;;1514477;77;817;-54
2023/09/07 09:43:54;;;;;;;;;;;24.20;50.10;;;;;;1517675;77;1427;-53
2023/09/07 09:45:56;;;;;;;;;;;24.20;49.80;;;;;;1519486;77;669;-53
2023/09/07 09:48:00;;;;;;;;;;;24.20;50.40;;;;;;1517205;78;798;-53
2023/09/07 09:50:06;;;;;;;;;;;24.20;50.30;;;;;;1523600;78;1135;-54
2023/09/07 09:52:06;;;;;;;;;;;24.20;50.30;;;;;;1522941;78;1598;-54
2023/09/07 09:54:08;;;;;;;;;;;24.20;50.00;;;;;;1523169;78;745;-54
2023/09/07 09:56:09;;;;;;;;;;;24.20;49.90;;;;;;1518319;78;752;-53
2023/09/07 09:58:11;;;;;;;;;;;24.20;49.80;;;;;;1517509;78;1380;-53
2023/09/07 10:00:25;;;;;;;;;;;24.20;49.90;;;;;;1522951;78;1944;-53
2023/09/07 10:02:23;;;;;;;;;;;24.20;49.70;;;;;;1508458;78;1099;-52
2023/09/07 10:04:25;;;;;;;;;;;24.30;49.80;;;;;;1494300;78;827;-54
2023/09/07 10:06:29;;;;;;;;;;;24.30;49.70;;;;;;1508145;77;814;-54
2023/09/07 10:08:32;;;;;;;;;;;24.30;49.80;;;;;;1511718;77;750;-54
2023/09/07 10:10:36;;;;;;;;;;;24.30;50.30;;;;;;1515813;76;1181;-54
2023/09/07 10:12:43;;;;;;;;;;;24.20;50.00;;;;;;1515808;77;1398;-54
2023/09/07 10:14:50;;;;;;;;;;;24.30;50.00;;;;;;1509099;78;783;-54
2023/09/07 10:16:50;;;;;;;;;;;24.20;50.00;;;;;;1509293;78;1538;-54
2023/09/07 10:18:51;;;;;;;;;;;24.20;49.90;;;;;;1517867;78;1936;-54
2023/09/07 10:20:55;;;;;;;;;;;24.20;49.90;;;;;;1510809;77;1206;-53
2023/09/07 10:23:04;;;;;;;;;;;24.20;49.90;;;;;;1512868;78;781;-53
2023/09/07 10:25:11;;;;;;;;;;;24.20;50.00;;;;;;1513405;78;691;-54
2023/09/07 10:27:13;;;;;;;;;;;24.20;50.20;;;;;;1520020;77;1536;-53
2023/09/07 10:29:13;;;;;;;;;;;24.20;50.20;;;;;;1512068;78;1248;-53
2023/09/07 10:31:16;;;;;;;;;;;24.20;50.30;;;;;;1513652;78;1231;-54
2023/09/07 10:33:21;;;;;;;;;;;24.20;50.40;;;;;;1508152;78;796;-54
2023/09/07 10:35:25;;;;;;;;;;;24.20;50.50;;;;;;1518856;78;790;-54
2023/09/07 10:37:28;;;;;;;;;;;24.20;50.50;;;;;;1514075;78;1764;-52
2023/09/07 10:39:32;;;;;;;;;;;24.20;50.60;;;;;;1495037;78;1956;-53
2023/09/07 10:41:43;;;;;;;;;;;24.20;50.80;;;;;;1502977;78;1465;-54
2023/09/07 10:43:48;;;;;;;;;;;24.20;50.80;;;;;;1509235;78;658;-54
2023/09/07 10:45:50;;;;;;;;;;;24.20;50.90;;;;;;1507400;78;847;-54
2023/09/07 10:47:52;;;;;;;;;;;24.20;51.00;;;;;;1496524;78;794;-54
2023/09/07 10:49:53;;;;;;;;;;;24.20;51.00;;;;;;1509873;78;1151;-54
2023/09/07 10:51:55;;;;;;;;;;;24.10;51.20;;;;;;1503801;78;771;-54
2023/09/07 10:53:57;;;;;;;;;;;24.10;51.10;;;;;;1506782;78;797;-54
2023/09/07 10:56:05;;;;;;;;;;;24.20;51.20;;;;;;1500784;78;1443;-52
2023/09/07 10:58:12;;;;;;;;;;;24.20;51.30;;;;;;1499409;78;783;-53
2023/09/07 11:00:11;;;;;;;;;;;24.20;51.30;;;;;;1509206;77;1941;-54
2023/09/07 11:02:14;;;;;;;;;;;24.10;51.30;;;;;;1512928;77;797;-54
2023/09/07 11:04:17;;;;;;;;;;;24.10;51.50;;;;;;1510560;78;728;-54
2023/09/07 11:06:22;;;;;;;;;;;24.10;51.40;;;;;;1509410;78;802;-53
2023/09/07 11:08:24;;;;;;;;;;;24.20;51.60;;;;;;1511390;77;1408;-53
2023/09/07 11:10:26;;;;;;;;;;;24.10;51.50;;;;;;1502107;78;1162;-53
2023/09/07 11:12:28;;;;;;;;;;;24.20;51.60;;;;;;1510258;78;741;-54
2023/09/07 11:14:30;;;;;;;;;;;24.10;51.80;;;;;;1512279;78;746;-53
2023/09/07 11:16:33;;;;;;;;;;;24.10;51.80;;;;;;1506413;78;775;-54
2023/09/07 11:18:38;;;;;;;;;;;24.00;51.80;;;;;;1512447;78;762;-53
2023/09/07 11:20:39;;;;;;;;;;;24.10;51.90;;;;;;1518217;77;1949;-54
2023/09/07 11:22:42;;;;;;;;;;;24.10;51.90;;;;;;1516891;78;1438;-53
2023/09/07 11:24:44;;;;;;;;;;;24.00;51.90;;;;;;1517140;78;635;-54
2023/09/07 11:26:46;;;;;;;;;;;24.10;52.10;;;;;;1516775;78;761;-53
2023/09/07 11:28:47;;;;;;;;;;;24.10;52.10;;;;;;1511201;78;765;-54
2023/09/07 11:30:51;;;;;;;;;;;24.00;52.10;;;;;;1505473;78;1240;-53
2023/09/07 11:32:55;;;;;;;;;;;24.00;52.10;;;;;;1513900;78;1679;-54
2023/09/07 11:34:56;;;;;;;;;;;24.00;52.30;;;;;;1515017;78;1918;-54
2023/09/07 11:36:58;;;;;;;;;;;24.10;52.50;;;;;;1501529;78;1444;-54
2023/09/07 11:39:00;;;;;;;;;;;24.00;52.40;;;;;;1508286;77;796;-53
2023/09/07 11:41:03;;;;;;;;;;;24.10;52.60;;;;;;1511829;78;1961;-52
2023/09/07 11:43:05;;;;;;;;;;;24.00;52.60;;;;;;1508371;78;791;-54
2023/09/07 11:45:07;;;;;;;;;;;24.00;52.60;;;;;;1512642;78;813;-52
2023/09/07 11:47:09;;;;;;;;;;;24.00;53.00;;;;;;1515027;78;753;-52
2023/09/07 11:49:11;;;;;;;;;;;24.00;53.10;;;;;;1508125;78;779;-51
2023/09/07 11:51:13;;;;;;;;;;;24.00;53.00;;;;;;1508497;77;1452;-52
2023/09/07 11:53:14;;;;;;;;;;;24.00;53.00;;;;;;1503526;78;1039;-53
2023/09/07 11:55:16;;;;;;;;;;;24.00;53.00;;;;;;1510573;78;1107;-53
2023/09/07 11:57:18;;;;;;;;;;;23.90;52.80;;;;;;1516359;78;1251;-53
2023/09/07 11:59:20;;;;;;;;;;;24.00;53.00;;;;;;1514421;78;1222;-53
2023/09/07 12:01:22;;;;;;;;;;;24.00;53.10;;;;;;1517269;77;1941;-52
2023/09/07 12:03:24;;;;;;;;;;;23.90;53.10;;;;;;1510126;78;1371;-52
2023/09/07 12:05:26;;;;;;;;;;;23.90;53.10;;;;;;1502592;78;1411;-52
2023/09/07 12:07:28;;;;;;;;;;;24.10;53.40;;;;;;1514502;78;1337;-53